sensor_id;sensor_type;location;lat;lon;timestamp;temperature;humidity
41547;DHT22;27271;45.412;10.852;2022-09-24T00:01:40;14.80;88.10
41547;DHT22;27271;45.412;10.852;2022-09-24T00:05:02;14.70;88.30
41547;DHT22;27271;45.412;10.852;2022-09-24T00:08:24;14.70;88.20
41547;DHT22;27271;45.412;10.852;2022-09-24T00:11:50;14.70;88.10
41547;DHT22;27271;45.412;10.852;2022-09-24T00:15:14;14.70;87.90
41547;DHT22;27271;45.412;10.852;2022-09-24T00:18:36;14.70;88.30
41547;DHT22;27271;45.412;10.852;2022-09-24T00:21:58;14.70;88.50
41547;DHT22;27271;45.412;10.852;2022-09-24T00:25:20;14.70;88.40
41547;DHT22;27271;45.412;10.852;2022-09-24T00:29:01;14.70;88.50
41547;DHT22;27271;45.412;10.852;2022-09-24T00:32:23;14.60;88.50
41547;DHT22;27271;45.412;10.852;2022-09-24T00:35:46;14.60;88.50
41547;DHT22;27271;45.412;10.852;2022-09-24T00:39:08;14.60;88.70
41547;DHT22;27271;45.412;10.852;2022-09-24T00:42:30;14.60;88.30
41547;DHT22;27271;45.412;10.852;2022-09-24T00:49:31;14.60;88.00
41547;DHT22;27271;45.412;10.852;2022-09-24T00:53:00;14.70;88.10
41547;DHT22;27271;45.412;10.852;2022-09-24T00:56:24;14.60;88.50
41547;DHT22;27271;45.412;10.852;2022-09-24T00:59:47;14.60;88.00
41547;DHT22;27271;45.412;10.852;2022-09-24T01:03:16;14.60;88.10
41547;DHT22;27271;45.412;10.852;2022-09-24T01:06:40;14.50;88.00
41547;DHT22;27271;45.412;10.852;2022-09-24T01:10:03;14.50;88.50
41547;DHT22;27271;45.412;10.852;2022-09-24T01:24:32;14.50;88.40
41547;DHT22;27271;45.412;10.852;2022-09-24T01:35:01;14.50;87.30
41547;DHT22;27271;45.412;10.852;2022-09-24T01:38:25;14.50;87.60
41547;DHT22;27271;45.412;10.852;2022-09-24T01:41:48;14.60;87.10
41547;DHT22;27271;45.412;10.852;2022-09-24T01:45:11;14.60;88.20
41547;DHT22;27271;45.412;10.852;2022-09-24T01:48:36;14.50;88.60
41547;DHT22;27271;45.412;10.852;2022-09-24T01:52:02;14.60;87.70
41547;DHT22;27271;45.412;10.852;2022-09-24T01:55:28;14.50;87.90
41547;DHT22;27271;45.412;10.852;2022-09-24T01:59:27;14.50;88.10
41547;DHT22;27271;45.412;10.852;2022-09-24T02:02:56;14.50;88.00
41547;DHT22;27271;45.412;10.852;2022-09-24T02:06:30;14.50;87.30
41547;DHT22;27271;45.412;10.852;2022-09-24T02:09:54;14.50;88.00
41547;DHT22;27271;45.412;10.852;2022-09-24T02:13:18;14.50;87.70
41547;DHT22;27271;45.412;10.852;2022-09-24T02:16:48;14.50;87.60
41547;DHT22;27271;45.412;10.852;2022-09-24T02:20:16;14.50;87.90
41547;DHT22;27271;45.412;10.852;2022-09-24T02:23:46;14.50;87.80
41547;DHT22;27271;45.412;10.852;2022-09-24T02:27:11;14.50;88.00
41547;DHT22;27271;45.412;10.852;2022-09-24T02:30:40;14.50;88.00
41547;DHT22;27271;45.412;10.852;2022-09-24T02:34:08;14.50;87.80
41547;DHT22;27271;45.412;10.852;2022-09-24T02:37:44;14.50;88.30
41547;DHT22;27271;45.412;10.852;2022-09-24T02:41:06;14.60;88.00
41547;DHT22;27271;45.412;10.852;2022-09-24T02:44:29;14.50;88.30
41547;DHT22;27271;45.412;10.852;2022-09-24T02:47:51;14.50;88.90
41547;DHT22;27271;45.412;10.852;2022-09-24T02:51:14;14.50;89.00
41547;DHT22;27271;45.412;10.852;2022-09-24T02:54:37;14.50;88.40
41547;DHT22;27271;45.412;10.852;2022-09-24T02:57:59;14.50;88.90
41547;DHT22;27271;45.412;10.852;2022-09-24T03:01:21;14.50;87.70
41547;DHT22;27271;45.412;10.852;2022-09-24T03:04:45;14.50;88.10
41547;DHT22;27271;45.412;10.852;2022-09-24T03:08:07;14.50;88.70
41547;DHT22;27271;45.412;10.852;2022-09-24T03:11:33;14.50;89.30
41547;DHT22;27271;45.412;10.852;2022-09-24T03:14:56;14.50;89.10
41547;DHT22;27271;45.412;10.852;2022-09-24T03:18:18;14.50;88.70
41547;DHT22;27271;45.412;10.852;2022-09-24T03:21:41;14.60;88.90
41547;DHT22;27271;45.412;10.852;2022-09-24T03:25:03;14.50;89.30
41547;DHT22;27271;45.412;10.852;2022-09-24T03:28:25;14.50;89.70
41547;DHT22;27271;45.412;10.852;2022-09-24T03:31:47;14.50;90.20
41547;DHT22;27271;45.412;10.852;2022-09-24T03:35:10;14.40;90.30
41547;DHT22;27271;45.412;10.852;2022-09-24T03:38:34;14.40;90.40
41547;DHT22;27271;45.412;10.852;2022-09-24T03:41:57;14.40;90.30
41547;DHT22;27271;45.412;10.852;2022-09-24T03:45:19;14.40;90.60
41547;DHT22;27271;45.412;10.852;2022-09-24T03:48:41;14.40;90.70
41547;DHT22;27271;45.412;10.852;2022-09-24T03:52:02;14.30;90.90
41547;DHT22;27271;45.412;10.852;2022-09-24T03:55:25;14.30;91.20
41547;DHT22;27271;45.412;10.852;2022-09-24T03:58:46;14.30;91.20
41547;DHT22;27271;45.412;10.852;2022-09-24T04:02:09;14.30;91.20
41547;DHT22;27271;45.412;10.852;2022-09-24T04:05:32;14.30;91.40
41547;DHT22;27271;45.412;10.852;2022-09-24T04:08:54;14.30;91.20
41547;DHT22;27271;45.412;10.852;2022-09-24T04:12:16;14.30;91.40
41547;DHT22;27271;45.412;10.852;2022-09-24T04:15:38;14.20;91.50
41547;DHT22;27271;45.412;10.852;2022-09-24T04:19:00;14.30;91.80
41547;DHT22;27271;45.412;10.852;2022-09-24T04:22:23;14.20;91.50
41547;DHT22;27271;45.412;10.852;2022-09-24T04:25:45;14.20;91.70
41547;DHT22;27271;45.412;10.852;2022-09-24T04:29:08;14.10;91.80
41547;DHT22;27271;45.412;10.852;2022-09-24T04:32:30;14.20;91.50
41547;DHT22;27271;45.412;10.852;2022-09-24T04:35:53;14.20;91.60
41547;DHT22;27271;45.412;10.852;2022-09-24T04:39:15;14.20;91.70
41547;DHT22;27271;45.412;10.852;2022-09-24T04:42:38;14.20;91.50
41547;DHT22;27271;45.412;10.852;2022-09-24T04:46:00;14.20;91.70
41547;DHT22;27271;45.412;10.852;2022-09-24T04:49:23;14.20;91.50
41547;DHT22;27271;45.412;10.852;2022-09-24T04:52:45;14.20;91.60
41547;DHT22;27271;45.412;10.852;2022-09-24T04:56:07;14.30;91.30
41547;DHT22;27271;45.412;10.852;2022-09-24T04:59:32;14.30;91.40
41547;DHT22;27271;45.412;10.852;2022-09-24T05:02:56;14.30;91.70
41547;DHT22;27271;45.412;10.852;2022-09-24T05:06:19;14.40;91.50
41547;DHT22;27271;45.412;10.852;2022-09-24T05:09:41;14.30;91.60
41547;DHT22;27271;45.412;10.852;2022-09-24T05:13:04;14.30;91.30
41547;DHT22;27271;45.412;10.852;2022-09-24T05:16:26;14.40;91.20
41547;DHT22;27271;45.412;10.852;2022-09-24T05:19:48;14.40;91.00
41547;DHT22;27271;45.412;10.852;2022-09-24T05:23:10;14.40;90.90
41547;DHT22;27271;45.412;10.852;2022-09-24T05:26:33;14.50;91.20
41547;DHT22;27271;45.412;10.852;2022-09-24T05:30:15;14.50;91.30
41547;DHT22;27271;45.412;10.852;2022-09-24T05:33:37;14.50;91.00
41547;DHT22;27271;45.412;10.852;2022-09-24T05:37:00;14.60;90.80
41547;DHT22;27271;45.412;10.852;2022-09-24T05:40:22;14.70;90.70
41547;DHT22;27271;45.412;10.852;2022-09-24T05:44:04;14.90;90.80
41547;DHT22;27271;45.412;10.852;2022-09-24T05:47:26;15.00;90.80
41547;DHT22;27271;45.412;10.852;2022-09-24T05:50:48;15.10;90.20
41547;DHT22;27271;45.412;10.852;2022-09-24T05:54:10;15.20;90.50
41547;DHT22;27271;45.412;10.852;2022-09-24T05:57:33;15.40;90.40
41547;DHT22;27271;45.412;10.852;2022-09-24T06:00:58;15.50;89.10
41547;DHT22;27271;45.412;10.852;2022-09-24T06:04:21;15.60;89.00
41547;DHT22;27271;45.412;10.852;2022-09-24T06:07:43;15.80;89.80
41547;DHT22;27271;45.412;10.852;2022-09-24T06:11:06;16.10;87.70
41547;DHT22;27271;45.412;10.852;2022-09-24T06:14:29;16.40;86.30
41547;DHT22;27271;45.412;10.852;2022-09-24T06:17:53;16.70;86.90
41547;DHT22;27271;45.412;10.852;2022-09-24T06:21:15;16.90;86.00
41547;DHT22;27271;45.412;10.852;2022-09-24T06:24:40;16.90;84.80
41547;DHT22;27271;45.412;10.852;2022-09-24T06:28:03;16.90;87.20
41547;DHT22;27271;45.412;10.852;2022-09-24T06:31:27;16.90;85.80
41547;DHT22;27271;45.412;10.852;2022-09-24T06:34:50;17.00;85.70
41547;DHT22;27271;45.412;10.852;2022-09-24T06:38:19;17.00;86.10
41547;DHT22;27271;45.412;10.852;2022-09-24T06:41:42;17.10;89.30
41547;DHT22;27271;45.412;10.852;2022-09-24T06:45:07;17.10;84.60
41547;DHT22;27271;45.412;10.852;2022-09-24T06:48:30;17.00;85.10
41547;DHT22;27271;45.412;10.852;2022-09-24T06:51:53;17.10;84.80
41547;DHT22;27271;45.412;10.852;2022-09-24T06:55:17;17.20;86.00
41547;DHT22;27271;45.412;10.852;2022-09-24T06:58:39;17.40;86.20
41547;DHT22;27271;45.412;10.852;2022-09-24T07:02:04;17.60;89.20
41547;DHT22;27271;45.412;10.852;2022-09-24T07:05:27;17.60;87.10
41547;DHT22;27271;45.412;10.852;2022-09-24T07:08:50;17.70;87.70
41547;DHT22;27271;45.412;10.852;2022-09-24T07:12:12;17.60;85.60
41547;DHT22;27271;45.412;10.852;2022-09-24T07:15:35;17.70;84.80
41547;DHT22;27271;45.412;10.852;2022-09-24T07:18:58;17.70;83.80
41547;DHT22;27271;45.412;10.852;2022-09-24T07:22:21;17.70;84.70
41547;DHT22;27271;45.412;10.852;2022-09-24T07:25:44;17.70;84.80
41547;DHT22;27271;45.412;10.852;2022-09-24T07:29:06;17.70;86.10
41547;DHT22;27271;45.412;10.852;2022-09-24T07:32:33;17.90;85.50
41547;DHT22;27271;45.412;10.852;2022-09-24T07:35:56;18.10;84.00
41547;DHT22;27271;45.412;10.852;2022-09-24T07:39:19;18.30;84.30
41547;DHT22;27271;45.412;10.852;2022-09-24T07:42:47;18.40;86.20
41547;DHT22;27271;45.412;10.852;2022-09-24T07:46:11;18.40;83.60
41547;DHT22;27271;45.412;10.852;2022-09-24T07:49:34;18.50;82.70
41547;DHT22;27271;45.412;10.852;2022-09-24T07:52:58;18.50;82.20
41547;DHT22;27271;45.412;10.852;2022-09-24T07:56:22;18.80;85.50
41547;DHT22;27271;45.412;10.852;2022-09-24T07:59:45;19.00;85.90
41547;DHT22;27271;45.412;10.852;2022-09-24T08:03:08;19.00;83.50
41547;DHT22;27271;45.412;10.852;2022-09-24T08:06:32;19.00;85.60
41547;DHT22;27271;45.412;10.852;2022-09-24T08:10:00;19.20;83.20
41547;DHT22;27271;45.412;10.852;2022-09-24T08:13:23;19.20;84.20
41547;DHT22;27271;45.412;10.852;2022-09-24T08:16:48;19.00;83.80
41547;DHT22;27271;45.412;10.852;2022-09-24T08:20:12;19.00;84.00
41547;DHT22;27271;45.412;10.852;2022-09-24T08:23:35;18.80;85.60
41547;DHT22;27271;45.412;10.852;2022-09-24T08:26:58;18.70;81.20
41547;DHT22;27271;45.412;10.852;2022-09-24T08:30:21;18.50;82.20
41547;DHT22;27271;45.412;10.852;2022-09-24T08:33:44;18.50;81.80
41547;DHT22;27271;45.412;10.852;2022-09-24T08:37:12;18.70;81.40
41547;DHT22;27271;45.412;10.852;2022-09-24T08:44:44;18.90;80.00
41547;DHT22;27271;45.412;10.852;2022-09-24T08:48:29;18.70;79.70
41547;DHT22;27271;45.412;10.852;2022-09-24T08:52:27;18.70;81.00
41547;DHT22;27271;45.412;10.852;2022-09-24T08:55:57;18.80;82.90
41547;DHT22;27271;45.412;10.852;2022-09-24T08:59:27;18.70;84.70
41547;DHT22;27271;45.412;10.852;2022-09-24T09:03:22;18.90;80.80
41547;DHT22;27271;45.412;10.852;2022-09-24T09:10:29;19.10;80.60
41547;DHT22;27271;45.412;10.852;2022-09-24T09:21:42;18.80;81.50
41547;DHT22;27271;45.412;10.852;2022-09-24T09:25:23;18.70;81.80
41547;DHT22;27271;45.412;10.852;2022-09-24T09:28:47;18.60;81.60
41547;DHT22;27271;45.412;10.852;2022-09-24T09:32:45;18.30;85.10
41547;DHT22;27271;45.412;10.852;2022-09-24T09:40:30;18.20;86.60
41547;DHT22;27271;45.412;10.852;2022-09-24T09:43:59;18.20;83.90
41547;DHT22;27271;45.412;10.852;2022-09-24T09:47:45;18.20;84.60
41547;DHT22;27271;45.412;10.852;2022-09-24T09:51:16;18.20;83.20
41547;DHT22;27271;45.412;10.852;2022-09-24T09:54:43;18.10;85.30
41547;DHT22;27271;45.412;10.852;2022-09-24T09:58:17;18.00;85.20
41547;DHT22;27271;45.412;10.852;2022-09-24T10:01:45;17.90;86.50
41547;DHT22;27271;45.412;10.852;2022-09-24T10:05:19;18.00;84.10
41547;DHT22;27271;45.412;10.852;2022-09-24T10:08:48;18.30;84.50
41547;DHT22;27271;45.412;10.852;2022-09-24T10:12:18;18.70;85.10
41547;DHT22;27271;45.412;10.852;2022-09-24T10:15:56;18.90;84.30
41547;DHT22;27271;45.412;10.852;2022-09-24T10:22:49;18.80;81.10
41547;DHT22;27271;45.412;10.852;2022-09-24T10:26:12;18.70;82.50
41547;DHT22;27271;45.412;10.852;2022-09-24T10:29:39;18.60;83.70
41547;DHT22;27271;45.412;10.852;2022-09-24T10:33:20;18.60;82.00
41547;DHT22;27271;45.412;10.852;2022-09-24T10:37:00;18.70;82.00
41547;DHT22;27271;45.412;10.852;2022-09-24T10:40:30;18.90;81.70
41547;DHT22;27271;45.412;10.852;2022-09-24T10:44:10;19.00;81.70
41547;DHT22;27271;45.412;10.852;2022-09-24T10:51:30;19.10;82.40
41547;DHT22;27271;45.412;10.852;2022-09-24T11:09:48;19.10;80.00
41547;DHT22;27271;45.412;10.852;2022-09-24T11:13:21;19.10;80.30
41547;DHT22;27271;45.412;10.852;2022-09-24T11:20:36;18.90;80.80
41547;DHT22;27271;45.412;10.852;2022-09-24T11:24:56;18.80;80.70
41547;DHT22;27271;45.412;10.852;2022-09-24T11:28:11;18.80;80.40
41547;DHT22;27271;45.412;10.852;2022-09-24T11:31:48;19.10;80.10
41547;DHT22;27271;45.412;10.852;2022-09-24T11:35:57;19.40;79.50
41547;DHT22;27271;45.412;10.852;2022-09-24T11:47:18;19.30;78.10
41547;DHT22;27271;45.412;10.852;2022-09-24T11:51:14;19.00;80.60
41547;DHT22;27271;45.412;10.852;2022-09-24T11:58:30;19.10;86.40
41547;DHT22;27271;45.412;10.852;2022-09-24T12:03:04;19.00;86.30
41547;DHT22;27271;45.412;10.852;2022-09-24T12:06:20;18.80;84.10
41547;DHT22;27271;45.412;10.852;2022-09-24T12:09:58;18.80;89.60
41547;DHT22;27271;45.412;10.852;2022-09-24T12:13:45;18.80;91.60
41547;DHT22;27271;45.412;10.852;2022-09-24T12:17:17;18.70;93.60
41547;DHT22;27271;45.412;10.852;2022-09-24T12:20:52;18.50;90.90
41547;DHT22;27271;45.412;10.852;2022-09-24T12:24:38;18.50;91.90
41547;DHT22;27271;45.412;10.852;2022-09-24T12:28:03;18.60;92.10
41547;DHT22;27271;45.412;10.852;2022-09-24T12:31:49;18.70;87.70
41547;DHT22;27271;45.412;10.852;2022-09-24T12:35:56;18.80;91.40
41547;DHT22;27271;45.412;10.852;2022-09-24T12:39:26;19.10;92.90
41547;DHT22;27271;45.412;10.852;2022-09-24T12:42:51;19.30;92.00
41547;DHT22;27271;45.412;10.852;2022-09-24T12:46:24;19.40;91.70
41547;DHT22;27271;45.412;10.852;2022-09-24T12:49:51;19.50;91.90
41547;DHT22;27271;45.412;10.852;2022-09-24T12:53:22;19.60;91.60
41547;DHT22;27271;45.412;10.852;2022-09-24T12:56:48;19.60;89.60
41547;DHT22;27271;45.412;10.852;2022-09-24T13:04:02;19.60;87.80
41547;DHT22;27271;45.412;10.852;2022-09-24T13:07:36;19.60;88.50
41547;DHT22;27271;45.412;10.852;2022-09-24T13:11:00;19.60;87.00
41547;DHT22;27271;45.412;10.852;2022-09-24T13:14:32;19.70;88.00
41547;DHT22;27271;45.412;10.852;2022-09-24T13:18:18;19.70;87.20
41547;DHT22;27271;45.412;10.852;2022-09-24T13:21:52;19.90;87.80
41547;DHT22;27271;45.412;10.852;2022-09-24T13:25:22;19.80;86.30
41547;DHT22;27271;45.412;10.852;2022-09-24T13:28:51;20.00;86.80
41547;DHT22;27271;45.412;10.852;2022-09-24T13:32:21;19.90;84.30
41547;DHT22;27271;45.412;10.852;2022-09-24T13:43:11;19.80;86.30
41547;DHT22;27271;45.412;10.852;2022-09-24T13:46:35;19.30;87.10
41547;DHT22;27271;45.412;10.852;2022-09-24T13:50:24;19.10;86.00
41547;DHT22;27271;45.412;10.852;2022-09-24T13:53:54;19.10;88.00
41547;DHT22;27271;45.412;10.852;2022-09-24T13:57:27;19.00;90.00
41547;DHT22;27271;45.412;10.852;2022-09-24T14:00:50;19.00;87.90
41547;DHT22;27271;45.412;10.852;2022-09-24T14:04:20;19.00;91.00
41547;DHT22;27271;45.412;10.852;2022-09-24T14:08:13;19.00;90.40
41547;DHT22;27271;45.412;10.852;2022-09-24T14:11:36;19.10;86.40
41547;DHT22;27271;45.412;10.852;2022-09-24T14:14:59;19.30;87.40
41547;DHT22;27271;45.412;10.852;2022-09-24T14:18:23;19.30;86.60
41547;DHT22;27271;45.412;10.852;2022-09-24T14:21:55;19.10;85.70
41547;DHT22;27271;45.412;10.852;2022-09-24T14:25:28;19.20;86.30
41547;DHT22;27271;45.412;10.852;2022-09-24T14:28:51;19.20;86.00
41547;DHT22;27271;45.412;10.852;2022-09-24T14:32:37;19.30;85.10
41547;DHT22;27271;45.412;10.852;2022-09-24T14:36:01;19.30;83.10
41547;DHT22;27271;45.412;10.852;2022-09-24T14:39:26;19.30;82.90
41547;DHT22;27271;45.412;10.852;2022-09-24T14:46:22;19.00;84.30
41547;DHT22;27271;45.412;10.852;2022-09-24T14:49:46;18.80;83.40
41547;DHT22;27271;45.412;10.852;2022-09-24T14:53:34;18.80;84.20
41547;DHT22;27271;45.412;10.852;2022-09-24T15:00:48;18.60;84.30
41547;DHT22;27271;45.412;10.852;2022-09-24T15:04:20;18.60;84.40
41547;DHT22;27271;45.412;10.852;2022-09-24T15:07:44;18.50;83.30
41547;DHT22;27271;45.412;10.852;2022-09-24T15:11:15;18.70;82.60
41547;DHT22;27271;45.412;10.852;2022-09-24T15:14:40;18.70;82.50
41547;DHT22;27271;45.412;10.852;2022-09-24T15:18:10;18.80;82.20
41547;DHT22;27271;45.412;10.852;2022-09-24T15:21:33;18.90;81.20
41547;DHT22;27271;45.412;10.852;2022-09-24T15:24:57;18.70;84.30
41547;DHT22;27271;45.412;10.852;2022-09-24T15:28:23;18.60;85.10
41547;DHT22;27271;45.412;10.852;2022-09-24T15:31:52;18.40;86.60
41547;DHT22;27271;45.412;10.852;2022-09-24T15:35:16;18.10;88.30
41547;DHT22;27271;45.412;10.852;2022-09-24T15:38:38;17.80;88.40
41547;DHT22;27271;45.412;10.852;2022-09-24T15:42:00;17.60;90.30
41547;DHT22;27271;45.412;10.852;2022-09-24T15:45:23;17.30;91.40
41547;DHT22;27271;45.412;10.852;2022-09-24T15:48:47;17.20;90.70
41547;DHT22;27271;45.412;10.852;2022-09-24T15:52:30;17.10;91.60
41547;DHT22;27271;45.412;10.852;2022-09-24T15:55:58;16.90;91.90
41547;DHT22;27271;45.412;10.852;2022-09-24T15:59:21;16.80;91.30
41547;DHT22;27271;45.412;10.852;2022-09-24T16:02:48;16.90;92.30
41547;DHT22;27271;45.412;10.852;2022-09-24T16:06:12;16.90;91.40
41547;DHT22;27271;45.412;10.852;2022-09-24T16:09:35;16.90;91.80
41547;DHT22;27271;45.412;10.852;2022-09-24T16:12:57;16.90;92.80
41547;DHT22;27271;45.412;10.852;2022-09-24T16:16:19;16.80;91.20
41547;DHT22;27271;45.412;10.852;2022-09-24T16:19:42;16.70;93.20
41547;DHT22;27271;45.412;10.852;2022-09-24T16:23:07;16.60;93.10
41547;DHT22;27271;45.412;10.852;2022-09-24T16:26:36;16.40;92.80
41547;DHT22;27271;45.412;10.852;2022-09-24T16:29:59;16.30;93.50
41547;DHT22;27271;45.412;10.852;2022-09-24T16:33:22;16.20;92.50
41547;DHT22;27271;45.412;10.852;2022-09-24T16:36:47;16.20;93.00
41547;DHT22;27271;45.412;10.852;2022-09-24T16:40:19;16.30;93.50
41547;DHT22;27271;45.412;10.852;2022-09-24T16:43:55;16.30;94.60
41547;DHT22;27271;45.412;10.852;2022-09-24T16:47:23;16.30;95.20
41547;DHT22;27271;45.412;10.852;2022-09-24T16:55:36;16.30;94.00
41547;DHT22;27271;45.412;10.852;2022-09-24T16:59:12;16.30;94.90
41547;DHT22;27271;45.412;10.852;2022-09-24T17:02:37;16.30;96.00
41547;DHT22;27271;45.412;10.852;2022-09-24T17:06:01;16.30;95.80
41547;DHT22;27271;45.412;10.852;2022-09-24T17:09:26;16.30;96.00
41547;DHT22;27271;45.412;10.852;2022-09-24T17:13:11;16.20;96.20
41547;DHT22;27271;45.412;10.852;2022-09-24T17:16:36;16.10;97.70
41547;DHT22;27271;45.412;10.852;2022-09-24T17:20:00;16.00;98.40
41547;DHT22;27271;45.412;10.852;2022-09-24T17:23:24;16.00;99.80
41547;DHT22;27271;45.412;10.852;2022-09-24T17:26:48;16.00;99.90
41547;DHT22;27271;45.412;10.852;2022-09-24T17:30:21;15.90;99.90
41547;DHT22;27271;45.412;10.852;2022-09-24T17:33:44;15.90;99.90
41547;DHT22;27271;45.412;10.852;2022-09-24T17:37:09;15.90;99.90
41547;DHT22;27271;45.412;10.852;2022-09-24T17:40:35;16.00;99.90
41547;DHT22;27271;45.412;10.852;2022-09-24T17:44:00;16.00;98.40
41547;DHT22;27271;45.412;10.852;2022-09-24T17:47:25;16.00;99.70
41547;DHT22;27271;45.412;10.852;2022-09-24T17:51:13;16.00;99.90
41547;DHT22;27271;45.412;10.852;2022-09-24T17:54:37;16.00;99.90
41547;DHT22;27271;45.412;10.852;2022-09-24T17:58:00;15.90;99.90
41547;DHT22;27271;45.412;10.852;2022-09-24T18:01:35;15.80;99.90
41547;DHT22;27271;45.412;10.852;2022-09-24T18:05:06;15.70;99.90
41547;DHT22;27271;45.412;10.852;2022-09-24T18:08:30;15.60;99.90
41547;DHT22;27271;45.412;10.852;2022-09-24T18:11:54;15.40;99.90
41547;DHT22;27271;45.412;10.852;2022-09-24T18:15:21;15.30;99.90
41547;DHT22;27271;45.412;10.852;2022-09-24T18:18:53;15.20;99.90
41547;DHT22;27271;45.412;10.852;2022-09-24T18:22:19;15.10;99.90
41547;DHT22;27271;45.412;10.852;2022-09-24T18:26:04;15.10;99.90
41547;DHT22;27271;45.412;10.852;2022-09-24T18:29:33;15.00;99.90
41547;DHT22;27271;45.412;10.852;2022-09-24T18:33:01;14.90;99.90
41547;DHT22;27271;45.412;10.852;2022-09-24T18:36:28;14.90;99.90
41547;DHT22;27271;45.412;10.852;2022-09-24T18:39:58;14.90;99.90
41547;DHT22;27271;45.412;10.852;2022-09-24T18:43:36;14.80;99.90
41547;DHT22;27271;45.412;10.852;2022-09-24T18:47:31;14.80;99.90
41547;DHT22;27271;45.412;10.852;2022-09-24T18:51:40;14.70;99.90
41547;DHT22;27271;45.412;10.852;2022-09-24T18:55:14;14.70;99.90
41547;DHT22;27271;45.412;10.852;2022-09-24T18:58:43;14.60;99.90
41547;DHT22;27271;45.412;10.852;2022-09-24T19:02:15;14.50;99.90
41547;DHT22;27271;45.412;10.852;2022-09-24T19:05:53;14.50;99.90
41547;DHT22;27271;45.412;10.852;2022-09-24T19:09:30;14.50;99.90
41547;DHT22;27271;45.412;10.852;2022-09-24T19:13:02;14.50;99.90
41547;DHT22;27271;45.412;10.852;2022-09-24T19:16:35;14.40;99.90
41547;DHT22;27271;45.412;10.852;2022-09-24T19:20:05;14.40;99.90
41547;DHT22;27271;45.412;10.852;2022-09-24T19:23:41;14.30;99.90
41547;DHT22;27271;45.412;10.852;2022-09-24T19:27:13;14.20;99.90
41547;DHT22;27271;45.412;10.852;2022-09-24T19:30:47;14.20;99.90
41547;DHT22;27271;45.412;10.852;2022-09-24T19:34:15;14.20;99.90
41547;DHT22;27271;45.412;10.852;2022-09-24T19:37:42;14.20;99.90
41547;DHT22;27271;45.412;10.852;2022-09-24T19:44:37;14.10;99.90
41547;DHT22;27271;45.412;10.852;2022-09-24T19:48:03;14.20;99.90
41547;DHT22;27271;45.412;10.852;2022-09-24T19:51:32;14.20;99.90
41547;DHT22;27271;45.412;10.852;2022-09-24T19:54:58;14.20;99.90
41547;DHT22;27271;45.412;10.852;2022-09-24T19:58:28;14.30;99.90
41547;DHT22;27271;45.412;10.852;2022-09-24T20:01:55;14.30;99.90
41547;DHT22;27271;45.412;10.852;2022-09-24T20:05:28;14.30;99.90
41547;DHT22;27271;45.412;10.852;2022-09-24T20:09:00;14.30;99.90
41547;DHT22;27271;45.412;10.852;2022-09-24T20:12:48;14.30;99.90
41547;DHT22;27271;45.412;10.852;2022-09-24T20:16:24;14.40;99.90
41547;DHT22;27271;45.412;10.852;2022-09-24T20:19:59;14.30;99.90
41547;DHT22;27271;45.412;10.852;2022-09-24T20:23:35;14.30;99.90
41547;DHT22;27271;45.412;10.852;2022-09-24T20:27:03;14.30;99.90
41547;DHT22;27271;45.412;10.852;2022-09-24T20:31:10;14.30;99.90
41547;DHT22;27271;45.412;10.852;2022-09-24T20:34:40;14.20;99.90
41547;DHT22;27271;45.412;10.852;2022-09-24T20:38:20;14.20;99.90
41547;DHT22;27271;45.412;10.852;2022-09-24T20:41:55;14.10;99.90
41547;DHT22;27271;45.412;10.852;2022-09-24T20:45:21;14.00;99.90
41547;DHT22;27271;45.412;10.852;2022-09-24T20:48:47;14.10;99.90
41547;DHT22;27271;45.412;10.852;2022-09-24T20:52:10;14.10;99.90
41547;DHT22;27271;45.412;10.852;2022-09-24T20:55:33;14.10;99.90
41547;DHT22;27271;45.412;10.852;2022-09-24T20:58:56;14.30;99.90
41547;DHT22;27271;45.412;10.852;2022-09-24T21:02:22;14.30;99.90
41547;DHT22;27271;45.412;10.852;2022-09-24T21:05:44;14.30;99.90
41547;DHT22;27271;45.412;10.852;2022-09-24T21:09:06;14.30;99.90
41547;DHT22;27271;45.412;10.852;2022-09-24T21:12:28;14.20;99.90
41547;DHT22;27271;45.412;10.852;2022-09-24T21:15:57;14.20;99.90
41547;DHT22;27271;45.412;10.852;2022-09-24T21:19:24;14.10;99.90
41547;DHT22;27271;45.412;10.852;2022-09-24T21:22:46;14.10;99.90
41547;DHT22;27271;45.412;10.852;2022-09-24T21:26:34;14.00;99.90
41547;DHT22;27271;45.412;10.852;2022-09-24T21:29:56;14.00;99.90
41547;DHT22;27271;45.412;10.852;2022-09-24T21:33:19;14.00;99.90
41547;DHT22;27271;45.412;10.852;2022-09-24T21:36:42;14.00;99.90
41547;DHT22;27271;45.412;10.852;2022-09-24T21:40:06;14.00;99.90
41547;DHT22;27271;45.412;10.852;2022-09-24T21:43:31;14.00;99.90
41547;DHT22;27271;45.412;10.852;2022-09-24T21:46:56;13.90;99.90
41547;DHT22;27271;45.412;10.852;2022-09-24T21:50:18;13.90;99.90
41547;DHT22;27271;45.412;10.852;2022-09-24T21:53:40;14.00;99.90
41547;DHT22;27271;45.412;10.852;2022-09-24T21:57:03;14.00;99.90
41547;DHT22;27271;45.412;10.852;2022-09-24T22:00:25;13.90;99.90
41547;DHT22;27271;45.412;10.852;2022-09-24T22:03:47;13.90;99.90
41547;DHT22;27271;45.412;10.852;2022-09-24T22:07:12;13.90;99.90
41547;DHT22;27271;45.412;10.852;2022-09-24T22:10:36;13.90;99.90
41547;DHT22;27271;45.412;10.852;2022-09-24T22:13:59;13.90;99.90
41547;DHT22;27271;45.412;10.852;2022-09-24T22:17:22;13.90;99.90
41547;DHT22;27271;45.412;10.852;2022-09-24T22:20:44;13.90;99.90
41547;DHT22;27271;45.412;10.852;2022-09-24T22:24:06;13.90;99.90
41547;DHT22;27271;45.412;10.852;2022-09-24T22:27:28;13.90;99.90
41547;DHT22;27271;45.412;10.852;2022-09-24T22:30:51;14.00;99.90
41547;DHT22;27271;45.412;10.852;2022-09-24T22:34:13;14.00;99.90
41547;DHT22;27271;45.412;10.852;2022-09-24T22:37:54;13.90;99.90
41547;DHT22;27271;45.412;10.852;2022-09-24T22:41:17;13.90;99.90
41547;DHT22;27271;45.412;10.852;2022-09-24T22:44:39;13.80;99.90
41547;DHT22;27271;45.412;10.852;2022-09-24T22:48:01;13.80;99.90
41547;DHT22;27271;45.412;10.852;2022-09-24T22:51:25;13.80;99.90
41547;DHT22;27271;45.412;10.852;2022-09-24T22:54:47;13.80;99.90
41547;DHT22;27271;45.412;10.852;2022-09-24T22:58:09;13.80;99.90
41547;DHT22;27271;45.412;10.852;2022-09-24T23:01:40;13.90;99.90
41547;DHT22;27271;45.412;10.852;2022-09-24T23:05:03;14.00;99.90
41547;DHT22;27271;45.412;10.852;2022-09-24T23:08:29;14.00;99.90
41547;DHT22;27271;45.412;10.852;2022-09-24T23:11:53;14.00;99.90
41547;DHT22;27271;45.412;10.852;2022-09-24T23:15:17;14.00;99.90
41547;DHT22;27271;45.412;10.852;2022-09-24T23:18:42;14.00;99.90